Time;durP1;ratioP1;P1;durP2;ratioP2;P2;SDS_P1;SDS_P2;PMS_P1;PMS_P2;Temp;Humidity;BMP_temperature;BMP_pressure;BME280_temperature;BME280_humidity;BME280_pressure;Samples;Min_cycle;Max_cycle;Signal;HPM_P1;HPM_P2
2022/07/12 00:02:06;;;;;;;4.88;1.98;;;;;;;;;;4976210;28;20050;-66
2022/07/12 00:04:32;;;;;;;2.33;1.33;;;;;;;;;;4976140;28;20541;-67
2022/07/12 00:06:58;;;;;;;3.45;1.40;;;;;;;;;;4976086;28;20034;-65
2022/07/12 00:09:24;;;;;;;5.55;2.65;;;;;;;;;;4976003;28;20054;-67
2022/07/12 00:11:50;;;;;;;5.57;3.00;;;;;;;;;;4976420;28;20030;-67
2022/07/12 00:14:16;;;;;;;5.40;1.63;;;;;;;;;;4975776;28;20045;-65
2022/07/12 00:16:42;;;;;;;3.03;1.40;;;;;;;;;;4976067;28;21015;-66
2022/07/12 00:19:08;;;;;;;3.47;1.38;;;;;;;;;;4975879;28;20074;-65
2022/07/12 00:21:34;;;;;;;2.42;1.20;;;;;;;;;;4975773;28;20027;-66
2022/07/12 00:24:00;;;;;;;3.70;1.08;;;;;;;;;;4975833;28;20825;-65
2022/07/12 00:26:26;;;;;;;5.32;1.17;;;;;;;;;;4975552;28;20031;-64
2022/07/12 00:28:53;;;;;;;2.35;1.08;;;;;;;;;;4974156;28;20035;-67
2022/07/12 00:31:20;;;;;;;2.33;1.00;;;;;;;;;;4975650;28;20023;-67
2022/07/12 00:33:46;;;;;;;2.88;1.70;;;;;;;;;;4984273;28;20034;-64
2022/07/12 00:36:12;;;;;;;3.75;1.25;;;;;;;;;;4994593;28;20417;-67
2022/07/12 00:38:37;;;;;;;2.70;1.20;;;;;;;;;;4994528;28;20149;-68
2022/07/12 00:41:03;;;;;;;4.15;1.73;;;;;;;;;;4988636;28;20035;-68
2022/07/12 00:43:29;;;;;;;2.70;1.27;;;;;;;;;;4955612;29;20035;-69
2022/07/12 00:45:55;;;;;;;4.90;1.33;;;;;;;;;;4955972;28;20035;-66
2022/07/12 00:48:21;;;;;;;2.35;1.13;;;;;;;;;;4955006;28;20042;-66
2022/07/12 00:50:47;;;;;;;4.65;1.10;;;;;;;;;;4955458;28;20031;-69
2022/07/12 00:53:16;;;;;;;2.03;0.90;;;;;;;;;;4955275;28;20042;-69
2022/07/12 00:55:42;;;;;;;3.40;1.20;;;;;;;;;;4973144;28;20500;-67
2022/07/12 00:58:08;;;;;;;1.70;1.17;;;;;;;;;;4974518;28;20047;-66
2022/07/12 01:00:34;;;;;;;1.92;1.00;;;;;;;;;;4962463;28;20039;-68
2022/07/12 01:03:03;;;;;;;3.75;1.05;;;;;;;;;;4955209;28;20039;-68
2022/07/12 01:05:29;;;;;;;2.95;1.20;;;;;;;;;;4955329;28;20520;-66
2022/07/12 01:07:56;;;;;;;3.90;1.33;;;;;;;;;;4954852;28;20097;-68
2022/07/12 01:10:22;;;;;;;4.20;1.23;;;;;;;;;;4955178;28;20030;-68
2022/07/12 01:12:49;;;;;;;2.25;1.38;;;;;;;;;;4955166;28;20094;-66
2022/07/12 01:15:16;;;;;;;2.78;1.70;;;;;;;;;;4954770;28;20031;-66
2022/07/12 01:17:45;;;;;;;2.65;1.20;;;;;;;;;;4955203;28;20514;-66
2022/07/12 01:20:11;;;;;;;1.85;1.10;;;;;;;;;;4954574;28;20051;-67
2022/07/12 01:22:41;;;;;;;1.75;1.10;;;;;;;;;;4969246;28;20031;-65
2022/07/12 01:25:07;;;;;;;5.07;1.27;;;;;;;;;;4974165;28;20055;-66
2022/07/12 01:27:33;;;;;;;3.90;1.38;;;;;;;;;;4973979;28;20042;-67
2022/07/12 01:30:02;;;;;;;2.63;1.38;;;;;;;;;;4973842;28;20066;-67
2022/07/12 01:32:30;;;;;;;4.05;1.30;;;;;;;;;;4973641;28;20023;-65
2022/07/12 01:35:05;;;;;;;3.28;1.50;;;;;;;;;;4973132;28;20027;-71
2022/07/12 01:37:35;;;;;;;3.78;1.40;;;;;;;;;;4973848;28;20038;-68
2022/07/12 01:40:03;;;;;;;3.13;1.50;;;;;;;;;;4973705;28;20038;-66
2022/07/12 01:42:30;;;;;;;4.32;1.80;;;;;;;;;;4973925;28;20038;-66
2022/07/12 01:44:56;;;;;;;3.47;1.48;;;;;;;;;;4973327;28;20078;-65
2022/07/12 01:47:25;;;;;;;5.75;3.05;;;;;;;;;;4974204;28;20027;-68
2022/07/12 01:49:52;;;;;;;5.50;3.75;;;;;;;;;;4974698;28;20035;-66
2022/07/12 01:52:19;;;;;;;6.30;4.82;;;;;;;;;;4965222;28;20155;-65
2022/07/12 01:54:46;;;;;;;5.25;3.22;;;;;;;;;;4953987;28;20047;-70
2022/07/12 01:57:12;;;;;;;7.07;3.67;;;;;;;;;;4953550;28;20043;-69
2022/07/12 01:59:38;;;;;;;9.70;5.70;;;;;;;;;;4954399;28;20390;-70
2022/07/12 02:02:04;;;;;;;7.53;4.68;;;;;;;;;;4953236;29;20552;-64
2022/07/12 02:04:30;;;;;;;8.43;4.03;;;;;;;;;;4954126;29;20039;-66
2022/07/12 02:06:56;;;;;;;6.18;2.88;;;;;;;;;;4953948;28;20038;-66
2022/07/12 02:09:22;;;;;;;4.93;2.95;;;;;;;;;;4954008;29;20035;-66
2022/07/12 02:11:49;;;;;;;10.75;2.30;;;;;;;;;;4953446;28;20027;-68
2022/07/12 02:14:16;;;;;;;4.47;1.63;;;;;;;;;;4953786;28;20039;-67
2022/07/12 02:16:42;;;;;;;7.82;2.28;;;;;;;;;;4954124;29;20031;-67
2022/07/12 02:19:10;;;;;;;3.40;1.80;;;;;;;;;;4954011;28;20372;-68
2022/07/12 02:21:36;;;;;;;3.42;1.67;;;;;;;;;;4955470;28;20027;-66
2022/07/12 02:24:02;;;;;;;4.70;1.45;;;;;;;;;;4971820;28;20038;-67
2022/07/12 02:26:28;;;;;;;3.70;1.42;;;;;;;;;;4973006;28;20023;-67
2022/07/12 02:28:54;;;;;;;4.05;1.50;;;;;;;;;;4973513;28;20486;-67
2022/07/12 02:31:20;;;;;;;2.95;1.88;;;;;;;;;;4973564;28;20069;-67
2022/07/12 02:33:46;;;;;;;2.63;1.60;;;;;;;;;;4972867;28;20062;-65
2022/07/12 02:36:12;;;;;;;5.40;2.10;;;;;;;;;;4973306;28;20108;-65
2022/07/12 02:38:38;;;;;;;3.63;1.92;;;;;;;;;;4973461;28;20470;-64
2022/07/12 02:41:04;;;;;;;5.03;1.60;;;;;;;;;;4973569;28;20027;-64
2022/07/12 02:43:30;;;;;;;3.33;1.30;;;;;;;;;;4973095;28;20530;-65
2022/07/12 02:46:04;;;;;;;1.90;1.10;;;;;;;;;;4972683;28;20482;-65
2022/07/12 02:48:30;;;;;;;7.50;1.40;;;;;;;;;;4973212;28;20047;-66
2022/07/12 02:50:56;;;;;;;3.90;1.38;;;;;;;;;;4973331;28;20021;-66
2022/07/12 02:53:22;;;;;;;4.20;1.48;;;;;;;;;;4973257;28;20532;-68
2022/07/12 02:55:48;;;;;;;4.32;1.23;;;;;;;;;;4973221;28;20065;-66
2022/07/12 02:58:15;;;;;;;6.65;1.55;;;;;;;;;;4972940;28;20089;-67
2022/07/12 03:00:41;;;;;;;4.57;1.20;;;;;;;;;;4972843;28;20042;-67
2022/07/12 03:03:08;;;;;;;5.32;1.30;;;;;;;;;;4972596;28;20031;-69
2022/07/12 03:05:34;;;;;;;6.35;1.23;;;;;;;;;;4972814;28;20047;-71
2022/07/12 03:08:02;;;;;;;2.42;1.30;;;;;;;;;;4973227;28;20034;-68
2022/07/12 03:10:28;;;;;;;3.50;1.10;;;;;;;;;;4974204;28;20131;-69
2022/07/12 03:12:54;;;;;;;5.57;1.20;;;;;;;;;;4976904;28;20114;-70
2022/07/12 03:15:20;;;;;;;3.55;1.33;;;;;;;;;;4976869;28;20038;-67
2022/07/12 03:17:46;;;;;;;3.47;1.35;;;;;;;;;;4976569;28;20039;-66
2022/07/12 03:20:14;;;;;;;5.97;1.25;;;;;;;;;;4976666;28;20031;-65
2022/07/12 03:22:48;;;;;;;3.70;1.30;;;;;;;;;;4976770;28;20038;-66
2022/07/12 03:25:15;;;;;;;2.35;1.20;;;;;;;;;;4976818;28;20081;-66
2022/07/12 03:27:41;;;;;;;4.18;1.42;;;;;;;;;;4976746;28;20030;-67
2022/07/12 03:30:08;;;;;;;5.20;1.30;;;;;;;;;;4976475;28;20039;-68
2022/07/12 03:32:34;;;;;;;2.85;1.30;;;;;;;;;;4976325;28;20027;-67
2022/07/12 03:35:00;;;;;;;2.35;1.30;;;;;;;;;;4976082;28;20046;-68
2022/07/12 03:37:27;;;;;;;6.18;1.80;;;;;;;;;;4976809;28;20026;-67
2022/07/12 03:39:56;;;;;;;4.25;1.85;;;;;;;;;;4976621;28;20027;-69
2022/07/12 03:42:22;;;;;;;3.65;1.35;;;;;;;;;;4976626;28;20073;-68
2022/07/12 03:44:48;;;;;;;2.90;1.52;;;;;;;;;;4979162;28;20085;-66
2022/07/12 03:47:14;;;;;;;3.15;1.20;;;;;;;;;;4979470;28;20034;-68
2022/07/12 03:49:39;;;;;;;5.32;1.70;;;;;;;;;;4976407;28;20116;-67
2022/07/12 03:52:06;;;;;;;4.05;1.30;;;;;;;;;;4976249;28;20029;-67
2022/07/12 03:54:32;;;;;;;2.70;1.42;;;;;;;;;;4976093;28;20610;-67
2022/07/12 03:57:13;;;;;;;6.15;1.65;;;;;;;;;;4976164;28;20070;-67
2022/07/12 03:59:43;;;;;;;3.58;1.63;;;;;;;;;;4975938;28;20127;-67
2022/07/12 04:02:10;;;;;;;4.65;1.95;;;;;;;;;;4975891;28;20034;-66
2022/07/12 04:04:36;;;;;;;3.45;2.10;;;;;;;;;;4975726;28;20026;-65
2022/07/12 04:07:03;;;;;;;3.75;1.70;;;;;;;;;;4975845;28;20070;-67
2022/07/12 04:09:29;;;;;;;3.30;1.60;;;;;;;;;;4975582;28;20031;-67
2022/07/12 04:11:55;;;;;;;4.35;1.70;;;;;;;;;;4975281;28;20114;-69
2022/07/12 04:14:21;;;;;;;3.95;1.50;;;;;;;;;;4973603;28;20043;-67
2022/07/12 04:16:47;;;;;;;6.00;1.90;;;;;;;;;;4975547;28;20023;-67
2022/07/12 04:19:12;;;;;;;3.42;2.15;;;;;;;;;;4975542;28;20509;-66
2022/07/12 04:21:38;;;;;;;4.25;2.50;;;;;;;;;;4974019;28;20381;-66
2022/07/12 04:24:05;;;;;;;4.53;2.08;;;;;;;;;;4974548;28;20066;-68
2022/07/12 04:26:31;;;;;;;3.38;1.70;;;;;;;;;;4974159;28;20034;-71
2022/07/12 04:28:57;;;;;;;6.63;2.25;;;;;;;;;;4974776;28;20054;-71
2022/07/12 04:31:26;;;;;;;5.53;1.88;;;;;;;;;;4974869;28;20061;-70
2022/07/12 04:33:52;;;;;;;6.57;1.77;;;;;;;;;;4974887;28;20042;-71
2022/07/12 04:36:18;;;;;;;7.47;1.88;;;;;;;;;;4974750;28;20063;-71
2022/07/12 04:38:44;;;;;;;5.70;1.88;;;;;;;;;;4975927;28;20415;-69
2022/07/12 04:41:10;;;;;;;6.30;1.80;;;;;;;;;;4963259;28;20066;-69
2022/07/12 04:43:35;;;;;;;3.88;1.85;;;;;;;;;;4955215;28;20063;-73
2022/07/12 04:46:08;;;;;;;3.40;1.70;;;;;;;;;;4955196;28;20512;-71
2022/07/12 04:48:34;;;;;;;3.80;1.50;;;;;;;;;;4955148;28;20070;-70
2022/07/12 04:51:00;;;;;;;8.13;1.83;;;;;;;;;;4959833;28;20058;-70
2022/07/12 04:53:26;;;;;;;9.77;1.70;;;;;;;;;;4974024;28;20418;-70
2022/07/12 04:55:55;;;;;;;2.03;1.25;;;;;;;;;;4973991;28;20026;-72
2022/07/12 04:58:21;;;;;;;4.13;1.50;;;;;;;;;;4974254;28;20092;-74
2022/07/12 05:00:47;;;;;;;3.65;1.80;;;;;;;;;;4974079;28;20057;-70
2022/07/12 05:03:13;;;;;;;7.35;1.73;;;;;;;;;;4972717;28;20042;-70
2022/07/12 05:05:38;;;;;;;7.18;1.98;;;;;;;;;;4973163;28;20035;-71
2022/07/12 05:08:04;;;;;;;4.63;1.30;;;;;;;;;;4972267;28;20042;-75
2022/07/12 05:10:31;;;;;;;3.92;1.60;;;;;;;;;;4972552;28;20031;-74
2022/07/12 05:12:56;;;;;;;5.72;1.58;;;;;;;;;;4972747;28;20447;-72
2022/07/12 05:15:22;;;;;;;3.30;1.33;;;;;;;;;;4973208;28;20133;-72
2022/07/12 05:17:48;;;;;;;3.47;1.40;;;;;;;;;;4956779;28;20479;-72
2022/07/12 05:20:14;;;;;;;5.43;1.42;;;;;;;;;;4969565;28;20031;-74
2022/07/12 05:22:42;;;;;;;2.75;1.52;;;;;;;;;;4973661;28;20038;-72
2022/07/12 05:25:08;;;;;;;2.53;1.60;;;;;;;;;;4972652;28;20023;-71
2022/07/12 05:27:35;;;;;;;3.92;1.55;;;;;;;;;;4973007;28;20166;-72
2022/07/12 05:30:02;;;;;;;4.55;2.00;;;;;;;;;;4973679;28;20034;-70
2022/07/12 05:32:28;;;;;;;3.53;1.63;;;;;;;;;;4973498;28;20031;-73
2022/07/12 05:34:54;;;;;;;2.70;1.23;;;;;;;;;;4973481;28;20406;-73
2022/07/12 05:37:20;;;;;;;3.97;1.73;;;;;;;;;;4974743;28;20046;-75
2022/07/12 05:39:46;;;;;;;3.53;1.40;;;;;;;;;;4976239;28;20031;-73
2022/07/12 05:42:12;;;;;;;2.50;1.48;;;;;;;;;;4978621;28;20046;-72
2022/07/12 05:44:38;;;;;;;2.40;1.42;;;;;;;;;;4974728;28;20034;-71
2022/07/12 05:47:04;;;;;;;3.15;1.77;;;;;;;;;;4974402;28;20039;-70
2022/07/12 05:49:29;;;;;;;3.70;1.45;;;;;;;;;;4974408;28;20031;-74
2022/07/12 05:54:40;;;;;;;8.32;1.88;;;;;;;;;;4973904;28;20031;-69
2022/07/12 05:57:06;;;;;;;3.50;1.45;;;;;;;;;;4964921;28;20560;-73
2022/07/12 05:59:34;;;;;;;5.38;1.40;;;;;;;;;;4954768;28;20038;-72
2022/07/12 06:01:59;;;;;;;5.25;1.70;;;;;;;;;;4954888;28;20031;-71
2022/07/12 06:04:25;;;;;;;5.45;1.52;;;;;;;;;;4954520;28;20036;-73
2022/07/12 06:06:51;;;;;;;6.78;1.70;;;;;;;;;;4954732;28;20030;-72
2022/07/12 06:09:17;;;;;;;3.53;2.00;;;;;;;;;;4963465;28;20034;-71
2022/07/12 06:11:43;;;;;;;5.85;1.70;;;;;;;;;;4973929;28;20398;-72
2022/07/12 06:14:09;;;;;;;9.98;2.40;;;;;;;;;;4973299;28;20031;-71
2022/07/12 06:16:34;;;;;;;4.82;1.77;;;;;;;;;;4973591;28;20023;-72
2022/07/12 06:19:00;;;;;;;7.50;1.50;;;;;;;;;;4973726;28;20026;-73
2022/07/12 06:21:26;;;;;;;3.63;1.70;;;;;;;;;;4967847;28;20038;-71
2022/07/12 06:23:53;;;;;;;2.92;1.70;;;;;;;;;;4954394;28;20051;-69
2022/07/12 06:26:18;;;;;;;3.03;1.55;;;;;;;;;;4954293;28;20023;-72
2022/07/12 06:28:44;;;;;;;5.18;1.80;;;;;;;;;;4954310;28;20510;-70
2022/07/12 06:31:10;;;;;;;4.10;1.80;;;;;;;;;;4954140;28;20070;-70
2022/07/12 06:33:36;;;;;;;3.20;1.58;;;;;;;;;;4953394;28;20086;-69
2022/07/12 06:36:02;;;;;;;3.20;1.60;;;;;;;;;;4953939;28;20020;-71
2022/07/12 06:38:27;;;;;;;2.90;1.42;;;;;;;;;;4953905;28;20043;-71
2022/07/12 06:40:53;;;;;;;4.25;1.70;;;;;;;;;;4954030;28;20030;-71
2022/07/12 06:43:19;;;;;;;5.35;2.03;;;;;;;;;;4955994;28;20041;-72
2022/07/12 06:45:45;;;;;;;3.63;1.60;;;;;;;;;;4972620;28;20046;-71
2022/07/12 06:48:11;;;;;;;5.18;1.70;;;;;;;;;;4972434;28;20054;-70
2022/07/12 06:50:37;;;;;;;4.97;2.08;;;;;;;;;;4973020;28;20023;-70
2022/07/12 06:53:03;;;;;;;8.40;1.75;;;;;;;;;;4971499;28;20030;-72
2022/07/12 06:55:30;;;;;;;3.47;1.75;;;;;;;;;;4953795;28;20482;-72
2022/07/12 06:57:56;;;;;;;5.10;1.90;;;;;;;;;;4953443;28;20122;-73
2022/07/12 07:00:22;;;;;;;3.70;1.75;;;;;;;;;;4965086;28;20039;-71
2022/07/12 07:02:48;;;;;;;4.65;1.80;;;;;;;;;;4972842;28;20035;-73
2022/07/12 07:05:15;;;;;;;3.65;1.90;;;;;;;;;;4972805;28;20084;-73
2022/07/12 07:07:41;;;;;;;4.38;1.70;;;;;;;;;;4972933;28;20058;-72
2022/07/12 07:10:07;;;;;;;5.03;1.73;;;;;;;;;;4973073;28;20453;-71
2022/07/12 07:12:33;;;;;;;4.22;1.60;;;;;;;;;;4964435;28;20047;-74
2022/07/12 07:14:59;;;;;;;7.70;1.60;;;;;;;;;;4953826;28;20035;-69
2022/07/12 07:17:25;;;;;;;4.57;2.08;;;;;;;;;;4953552;29;20032;-73
2022/07/12 07:19:51;;;;;;;3.55;1.40;;;;;;;;;;4952273;29;20122;-72
2022/07/12 07:22:17;;;;;;;7.00;1.65;;;;;;;;;;4953222;28;20032;-72
2022/07/12 07:24:42;;;;;;;4.65;2.15;;;;;;;;;;4955842;28;20082;-73
2022/07/12 07:27:08;;;;;;;4.22;1.90;;;;;;;;;;4971428;28;20046;-72
2022/07/12 07:32:19;;;;;;;5.57;2.47;;;;;;;;;;4972475;28;20031;-72
2022/07/12 07:34:45;;;;;;;3.25;1.40;;;;;;;;;;4972544;28;20030;-72
2022/07/12 07:37:11;;;;;;;6.20;2.50;;;;;;;;;;4968995;28;20040;-72
2022/07/12 07:39:37;;;;;;;3.90;1.80;;;;;;;;;;4953331;28;20061;-73
2022/07/12 07:42:03;;;;;;;5.13;1.88;;;;;;;;;;4953249;28;20035;-74
2022/07/12 07:44:29;;;;;;;3.65;1.30;;;;;;;;;;4953399;28;20031;-70
2022/07/12 07:46:55;;;;;;;4.05;1.70;;;;;;;;;;4953580;28;20395;-73
2022/07/12 07:49:21;;;;;;;3.75;1.77;;;;;;;;;;4963549;28;20457;-71
2022/07/12 07:51:47;;;;;;;5.82;1.55;;;;;;;;;;4971062;28;20109;-69
2022/07/12 07:54:13;;;;;;;9.07;2.25;;;;;;;;;;4972040;28;20031;-70
2022/07/12 07:56:39;;;;;;;2.53;1.50;;;;;;;;;;4973932;28;20097;-70
2022/07/12 07:59:05;;;;;;;4.25;1.90;;;;;;;;;;4976698;28;20046;-71
2022/07/12 08:01:52;;;;;;;2.08;1.30;;;;;;;;;;4976440;28;20035;-72
2022/07/12 08:04:19;;;;;;;3.92;1.48;;;;;;;;;;4976325;28;20035;-70
2022/07/12 08:06:45;;;;;;;7.05;1.50;;;;;;;;;;4976311;28;20035;-70
2022/07/12 08:09:12;;;;;;;2.90;1.58;;;;;;;;;;4976269;28;20054;-70
2022/07/12 08:11:38;;;;;;;2.75;1.67;;;;;;;;;;4975993;28;20027;-71
2022/07/12 08:14:05;;;;;;;7.18;2.17;;;;;;;;;;4975735;28;20035;-71
2022/07/12 08:16:32;;;;;;;4.53;1.75;;;;;;;;;;4975913;28;20098;-70
2022/07/12 08:18:59;;;;;;;5.13;1.98;;;;;;;;;;4976114;28;20039;-71
2022/07/12 08:21:26;;;;;;;4.10;2.05;;;;;;;;;;4975686;28;20458;-70
2022/07/12 08:23:53;;;;;;;2.38;1.50;;;;;;;;;;4975733;28;20039;-71
2022/07/12 08:26:19;;;;;;;7.55;1.98;;;;;;;;;;4975824;28;20466;-71
2022/07/12 08:28:45;;;;;;;5.00;1.30;;;;;;;;;;4975561;28;20031;-71
2022/07/12 08:31:13;;;;;;;6.32;1.45;;;;;;;;;;4975586;28;20027;-73
2022/07/12 08:33:40;;;;;;;2.97;1.83;;;;;;;;;;4975266;28;20097;-74
2022/07/12 08:36:08;;;;;;;3.67;1.63;;;;;;;;;;4975685;28;20046;-72
2022/07/12 08:38:36;;;;;;;5.00;1.50;;;;;;;;;;4975019;28;20502;-72
2022/07/12 08:41:06;;;;;;;6.63;1.55;;;;;;;;;;4975739;28;20470;-71
2022/07/12 08:43:35;;;;;;;4.97;1.52;;;;;;;;;;4976061;28;20039;-73
2022/07/12 08:46:12;;;;;;;5.28;1.80;;;;;;;;;;4975905;28;20122;-71
2022/07/12 08:48:40;;;;;;;2.53;1.30;;;;;;;;;;4975386;28;20046;-72
2022/07/12 08:51:07;;;;;;;2.15;1.58;;;;;;;;;;4975714;28;20026;-74
2022/07/12 08:53:33;;;;;;;5.47;1.40;;;;;;;;;;4975303;28;20470;-73
2022/07/12 08:55:59;;;;;;;2.42;1.60;;;;;;;;;;4975571;28;20023;-73
2022/07/12 08:58:26;;;;;;;4.32;1.60;;;;;;;;;;4975532;28;20034;-72
2022/07/12 09:00:51;;;;;;;3.55;1.50;;;;;;;;;;4975356;28;20378;-71
2022/07/12 09:03:19;;;;;;;3.55;1.65;;;;;;;;;;4975135;28;20038;-73
2022/07/12 09:05:56;;;;;;;2.65;1.40;;;;;;;;;;4975209;28;20022;-71
2022/07/12 09:08:28;;;;;;;3.92;1.80;;;;;;;;;;4974725;28;20093;-73
2022/07/12 09:10:57;;;;;;;1.67;1.30;;;;;;;;;;4975291;28;20114;-72
2022/07/12 09:13:55;;;;;;;3.60;1.60;;;;;;;;;;4975177;28;20193;-72
2022/07/12 09:16:26;;;;;;;4.32;1.70;;;;;;;;;;4975244;28;20039;-74
2022/07/12 09:19:19;;;;;;;2.65;1.63;;;;;;;;;;4975521;28;20394;-74
2022/07/12 09:21:51;;;;;;;2.28;1.60;;;;;;;;;;4975497;28;20097;-73
2022/07/12 09:24:18;;;;;;;6.28;1.95;;;;;;;;;;4975018;28;20038;-71
2022/07/12 09:26:45;;;;;;;3.35;1.50;;;;;;;;;;4974892;28;20529;-75
2022/07/12 09:29:13;;;;;;;5.22;1.98;;;;;;;;;;4974827;28;20041;-73
2022/07/12 09:36:06;;;;;;;7.50;1.50;;;;;;;;;;4975290;28;20026;-71
2022/07/12 09:37:14;;;;;;;4.20;1.73;;;;;;;;;;4975040;28;20039;-74
2022/07/12 09:39:41;;;;;;;9.68;2.30;;;;;;;;;;4974841;28;20437;-71
2022/07/12 09:42:10;;;;;;;3.47;1.60;;;;;;;;;;4975002;28;20058;-70
2022/07/12 09:44:36;;;;;;;6.72;1.75;;;;;;;;;;4974568;28;20414;-70
2022/07/12 09:47:03;;;;;;;4.18;1.80;;;;;;;;;;4974656;28;20367;-71
2022/07/12 09:49:29;;;;;;;4.25;1.58;;;;;;;;;;4974727;28;20026;-70
2022/07/12 09:51:56;;;;;;;6.95;2.00;;;;;;;;;;4974190;28;20031;-70
2022/07/12 09:54:29;;;;;;;6.45;2.10;;;;;;;;;;4974120;28;20023;-71
2022/07/12 09:56:59;;;;;;;3.22;1.50;;;;;;;;;;4974315;28;20549;-70
2022/07/12 09:59:28;;;;;;;6.50;1.77;;;;;;;;;;4974295;28;20089;-70
2022/07/12 10:02:03;;;;;;;4.97;1.90;;;;;;;;;;4973126;28;20217;-70
2022/07/12 10:04:30;;;;;;;3.63;1.70;;;;;;;;;;4974168;28;20050;-70
2022/07/12 10:06:57;;;;;;;3.70;1.50;;;;;;;;;;4974091;28;20022;-71
2022/07/12 10:09:25;;;;;;;2.97;1.58;;;;;;;;;;4972621;28;20169;-71
2022/07/12 10:11:51;;;;;;;6.38;1.80;;;;;;;;;;4973712;28;20117;-70
2022/07/12 10:14:19;;;;;;;2.50;1.48;;;;;;;;;;4973687;28;20038;-70
2022/07/12 10:16:45;;;;;;;3.08;1.70;;;;;;;;;;4973935;28;20114;-70
2022/07/12 10:19:25;;;;;;;2.50;1.50;;;;;;;;;;4973244;28;20034;-72
2022/07/12 10:21:53;;;;;;;2.10;1.38;;;;;;;;;;4972388;28;20089;-74
2022/07/12 10:24:31;;;;;;;5.78;2.17;;;;;;;;;;4973913;28;20385;-73
2022/07/12 10:27:15;;;;;;;3.08;1.48;;;;;;;;;;4973671;28;20045;-71
2022/07/12 10:29:41;;;;;;;2.78;1.52;;;;;;;;;;4973810;28;20429;-73
2022/07/12 10:32:25;;;;;;;5.22;1.70;;;;;;;;;;4973620;28;20031;-71
2022/07/12 10:35:07;;;;;;;3.45;1.80;;;;;;;;;;4973494;28;20067;-72
2022/07/12 10:37:34;;;;;;;8.90;2.40;;;;;;;;;;4974187;28;20034;-74
2022/07/12 10:40:20;;;;;;;2.70;1.50;;;;;;;;;;4974128;28;20277;-73
2022/07/12 10:43:01;;;;;;;6.10;2.03;;;;;;;;;;4973715;28;20050;-74
2022/07/12 10:45:41;;;;;;;2.42;1.40;;;;;;;;;;4973681;28;20027;-73
2022/07/12 10:48:08;;;;;;;2.40;1.58;;;;;;;;;;4973959;28;20061;-72
2022/07/12 10:50:54;;;;;;;3.58;1.77;;;;;;;;;;4973792;28;20030;-72
2022/07/12 10:53:25;;;;;;;2.50;1.60;;;;;;;;;;4973745;28;20045;-72
2022/07/12 10:56:14;;;;;;;4.15;1.95;;;;;;;;;;4973465;28;20536;-72
2022/07/12 10:58:46;;;;;;;4.15;1.88;;;;;;;;;;4972507;28;20086;-74
2022/07/12 11:01:17;;;;;;;2.08;1.40;;;;;;;;;;4973986;28;20057;-69
2022/07/12 11:03:54;;;;;;;4.35;1.88;;;;;;;;;;4973780;28;20090;-71
2022/07/12 11:06:25;;;;;;;4.05;1.60;;;;;;;;;;4973706;28;20114;-73
2022/07/12 11:08:59;;;;;;;2.85;1.83;;;;;;;;;;4973631;28;20035;-74
2022/07/12 11:11:33;;;;;;;4.45;1.75;;;;;;;;;;4973472;28;20031;-73
2022/07/12 11:14:00;;;;;;;4.22;1.80;;;;;;;;;;4973471;28;20030;-75
2022/07/12 11:16:28;;;;;;;3.80;1.85;;;;;;;;;;4973765;28;20076;-73
2022/07/12 11:18:55;;;;;;;4.15;1.90;;;;;;;;;;4973698;28;20429;-72
2022/07/12 11:21:23;;;;;;;8.57;1.70;;;;;;;;;;4971661;28;20027;-75
2022/07/12 11:23:50;;;;;;;5.18;2.00;;;;;;;;;;4973079;28;20047;-72
2022/07/12 11:26:17;;;;;;;5.57;1.90;;;;;;;;;;4970424;28;20105;-72
2022/07/12 11:28:45;;;;;;;4.25;1.73;;;;;;;;;;4970701;28;20486;-72
2022/07/12 11:31:11;;;;;;;5.93;2.85;;;;;;;;;;4973541;28;20374;-71
2022/07/12 11:33:41;;;;;;;2.75;1.50;;;;;;;;;;4976632;28;20500;-72
2022/07/12 11:36:09;;;;;;;2.25;1.40;;;;;;;;;;4976629;28;20039;-71
2022/07/12 11:38:40;;;;;;;3.35;1.70;;;;;;;;;;4977170;28;20062;-71
2022/07/12 11:41:07;;;;;;;3.25;1.60;;;;;;;;;;4976881;28;20498;-72
2022/07/12 11:43:35;;;;;;;3.55;1.60;;;;;;;;;;4972906;28;20054;-71
2022/07/12 11:46:02;;;;;;;5.05;1.80;;;;;;;;;;4966991;28;20119;-73
2022/07/12 11:48:32;;;;;;;4.93;1.77;;;;;;;;;;4965966;28;20050;-73
2022/07/12 11:51:05;;;;;;;6.40;1.77;;;;;;;;;;4967080;28;20034;-73
2022/07/12 11:53:32;;;;;;;2.08;1.58;;;;;;;;;;4967669;28;20058;-71
2022/07/12 11:55:59;;;;;;;3.30;1.73;;;;;;;;;;4966478;28;20035;-72
2022/07/12 11:58:27;;;;;;;3.88;1.80;;;;;;;;;;4965955;28;20039;-71
2022/07/12 12:00:53;;;;;;;9.82;3.08;;;;;;;;;;4967084;28;20445;-74
2022/07/12 12:03:22;;;;;;;4.35;1.90;;;;;;;;;;4966126;28;20041;-72
2022/07/12 12:05:49;;;;;;;5.50;2.22;;;;;;;;;;4965140;28;20027;-72
2022/07/12 12:08:16;;;;;;;4.10;2.40;;;;;;;;;;4966483;28;20058;-74
2022/07/12 12:10:51;;;;;;;2.33;1.48;;;;;;;;;;4965821;28;20493;-72
2022/07/12 12:13:18;;;;;;;2.92;1.63;;;;;;;;;;4966485;28;20086;-72
2022/07/12 12:16:10;;;;;;;4.88;2.05;;;;;;;;;;4970581;28;20077;-74
2022/07/12 12:18:41;;;;;;;3.87;1.57;;;;;;;;;;4978654;28;20052;-72
2022/07/12 12:21:10;;;;;;;2.83;1.73;;;;;;;;;;4994922;28;20348;-74
2022/07/12 12:23:38;;;;;;;3.13;1.80;;;;;;;;;;4992357;28;20113;-73
2022/07/12 12:26:17;;;;;;;12.57;5.45;;;;;;;;;;4976024;28;20045;-72
2022/07/12 12:28:48;;;;;;;3.50;1.60;;;;;;;;;;4976146;28;20466;-72
2022/07/12 12:31:16;;;;;;;5.47;1.80;;;;;;;;;;4976169;28;20494;-70
2022/07/12 12:33:51;;;;;;;3.63;1.63;;;;;;;;;;4975924;28;20110;-72
2022/07/12 12:36:24;;;;;;;2.30;1.55;;;;;;;;;;4975212;28;20030;-71
2022/07/12 12:38:53;;;;;;;;;;;;;;;;;;4976015;28;20545;-69
2022/07/12 12:41:22;;;;;;;3.90;1.55;;;;;;;;;;4975732;28;20369;-73
2022/07/12 12:43:56;;;;;;;2.88;1.85;;;;;;;;;;4974457;28;20031;-72
2022/07/12 12:46:22;;;;;;;3.38;1.55;;;;;;;;;;4975724;28;20037;-73
2022/07/12 12:48:48;;;;;;;2.28;1.80;;;;;;;;;;4975191;28;20023;-70
2022/07/12 12:51:15;;;;;;;4.35;2.10;;;;;;;;;;4975556;28;20390;-70
2022/07/12 12:53:42;;;;;;;6.85;1.90;;;;;;;;;;4974104;28;20345;-71
2022/07/12 12:56:13;;;;;;;2.08;1.58;;;;;;;;;;4975472;28;20047;-70
2022/07/12 12:58:40;;;;;;;4.10;1.88;;;;;;;;;;4975594;28;20637;-71
2022/07/12 13:01:07;;;;;;;4.85;1.90;;;;;;;;;;4975470;28;20034;-71
2022/07/12 13:03:35;;;;;;;6.78;4.82;;;;;;;;;;4974285;28;20061;-72
2022/07/12 13:06:01;;;;;;;5.82;1.60;;;;;;;;;;4974755;28;20035;-71
2022/07/12 13:08:27;;;;;;;2.13;1.52;;;;;;;;;;4973082;28;20223;-69
2022/07/12 13:13:39;;;;;;;2.70;1.52;;;;;;;;;;4987603;28;20369;-71
2022/07/12 13:16:05;;;;;;;2.17;1.50;;;;;;;;;;4962153;28;20051;-70
2022/07/12 13:18:32;;;;;;;4.80;1.52;;;;;;;;;;4954964;28;20027;-70
2022/07/12 13:20:58;;;;;;;3.65;1.60;;;;;;;;;;4954723;28;20037;-71
2022/07/12 13:23:24;;;;;;;1.58;1.40;;;;;;;;;;4969132;28;20106;-69
2022/07/12 13:25:49;;;;;;;2.72;1.50;;;;;;;;;;4954927;28;20543;-70
2022/07/12 13:28:15;;;;;;;2.90;1.73;;;;;;;;;;4965404;28;20049;-70
2022/07/12 13:30:41;;;;;;;5.00;1.77;;;;;;;;;;4973691;28;20474;-69
2022/07/12 13:33:07;;;;;;;2.13;1.40;;;;;;;;;;4969358;28;20386;-71
2022/07/12 13:35:33;;;;;;;2.05;1.45;;;;;;;;;;4953727;28;20441;-70
2022/07/12 13:37:58;;;;;;;2.55;1.52;;;;;;;;;;4953951;28;20106;-71
2022/07/12 13:40:25;;;;;;;2.35;1.63;;;;;;;;;;4961055;28;20033;-70
2022/07/12 13:42:51;;;;;;;2.90;1.52;;;;;;;;;;4973995;28;20038;-73
2022/07/12 13:45:22;;;;;;;2.75;1.70;;;;;;;;;;4972000;28;20022;-68
2022/07/12 13:47:51;;;;;;;4.78;2.00;;;;;;;;;;4973820;28;20039;-67
2022/07/12 13:50:18;;;;;;;4.53;1.80;;;;;;;;;;4974031;28;20502;-70
2022/07/12 13:52:45;;;;;;;4.65;1.80;;;;;;;;;;4972667;28;20539;-74
2022/07/12 13:55:12;;;;;;;3.00;1.55;;;;;;;;;;4973310;28;20135;-70
2022/07/12 13:57:39;;;;;;;5.18;1.55;;;;;;;;;;4973612;28;20057;-68
2022/07/12 14:00:11;;;;;;;3.13;1.60;;;;;;;;;;4973023;28;20050;-78
2022/07/12 14:02:44;;;;;;;2.40;1.60;;;;;;;;;;4973536;28;20027;-71
2022/07/12 14:05:11;;;;;;;3.40;1.67;;;;;;;;;;4952809;28;20039;-70
2022/07/12 14:07:38;;;;;;;3.13;1.60;;;;;;;;;;4968351;28;20501;-68
2022/07/12 14:10:05;;;;;;;2.63;1.67;;;;;;;;;;4973362;28;20042;-68
2022/07/12 14:12:32;;;;;;;4.43;1.50;;;;;;;;;;4973342;28;20027;-69
2022/07/12 14:15:19;;;;;;;3.58;1.63;;;;;;;;;;4972960;28;20035;-68
2022/07/12 14:17:50;;;;;;;2.47;1.60;;;;;;;;;;4973236;28;20082;-71
2022/07/12 14:20:21;;;;;;;3.70;1.92;;;;;;;;;;4972353;28;20030;-69
2022/07/12 14:22:48;;;;;;;2.40;1.70;;;;;;;;;;4972684;28;20034;-72
2022/07/12 14:25:15;;;;;;;2.33;1.30;;;;;;;;;;4973258;28;20026;-69
2022/07/12 14:27:42;;;;;;;2.70;1.70;;;;;;;;;;4973486;28;20035;-70
2022/07/12 14:30:10;;;;;;;2.38;1.50;;;;;;;;;;4972328;28;20019;-71
2022/07/12 14:32:36;;;;;;;2.20;1.60;;;;;;;;;;4971962;28;20030;-69
2022/07/12 14:35:02;;;;;;;3.08;1.55;;;;;;;;;;4953795;28;20058;-70
2022/07/12 14:37:28;;;;;;;4.75;1.73;;;;;;;;;;4953004;28;20127;-70
2022/07/12 14:39:54;;;;;;;3.28;1.60;;;;;;;;;;4953593;28;20035;-68
2022/07/12 14:42:20;;;;;;;5.80;1.55;;;;;;;;;;4953556;28;20036;-69
2022/07/12 14:44:46;;;;;;;3.22;1.52;;;;;;;;;;4953144;28;20074;-72
2022/07/12 14:47:13;;;;;;;4.20;1.80;;;;;;;;;;4952753;28;20039;-70
2022/07/12 14:49:39;;;;;;;5.40;2.50;;;;;;;;;;4953281;28;20114;-69
2022/07/12 14:52:08;;;;;;;3.88;1.98;;;;;;;;;;4952762;28;20074;-70
2022/07/12 14:54:34;;;;;;;2.65;1.40;;;;;;;;;;4953547;28;20039;-70
2022/07/12 14:57:01;;;;;;;6.95;1.70;;;;;;;;;;4953702;29;20066;-70
2022/07/12 14:59:27;;;;;;;2.60;1.58;;;;;;;;;;4953078;28;20043;-71